Moss Beach, California
Current Conditions -  °F | °C
As of 12:55 AM on Wednesday 22 Oct 2014 (Local Time) from KHAF Reporting Station
Haze Haze  
Wind Chill: 59°   Ceiling: Unl
Heat Index: 59°   Visibility: 1.2mi
Dew Point: 55°   Wind: 6mph
Humidity: 88%   Direction: 20°NNE
Pressure: 30.06"   Gusts: NA
Location:  37.53°N, 122.52°W
Report Text: KHAF 220755Z AUTO 02005KT 1 1/4SM BR CLR 15/13 A3006 RMK AO2
Loading
Personal Weather Stations






























Interactive Weather Map
Tropical Storm Tracking
New forecast layout! Learn more

10-Day Weather Forecast

Advertisements
Track Severe Weather on mobile